Flight Track Log - Related Links

Times and Time Zones

All times are in EDT time to prevent confusion due to time zone crossing. See the KAP89 flight status page for this flight to view local times or setup timezone preferences in your user account.


Time Position Orientation Groundspeed Altitude Reporting Facility
EDT Latitude Longitude Course Direction KTS MPH feet Rate Location/Type
Tue 04:43:57 PM 38.7000 -90.3500 201° Southwest 125 144 2,100  Level Gateway (St. Louis) TRACON
Tue 04:44:51 PM 38.6833 -90.3833 237° Southwest 122 140 2,800 783 Climbing Gateway (St. Louis) TRACON
Tue 04:45:52 PM 38.6500 -90.4000 201° Southwest 113 130 3,600 783 Climbing Gateway (St. Louis) TRACON
Tue 04:46:46 PM 38.6333 -90.4333 237° Southwest 118 136 4,300 607 Climbing Gateway (St. Louis) TRACON
Tue 04:47:21 PM 38.6303 -90.4547 260° West 118 136 4,500 375 Climbing Kansas City Center
Tue 04:48:00 PM 38.6405 -90.5650 237° Southwest  Level Estimated
Tue 04:48:22 PM 38.6125 -90.4906 238° Southwest 118 136 4,900  Level Kansas City Center
Tue 04:49:26 PM 38.5944 -90.5247 236° Southwest 118 136 5,300 387 Climbing Kansas City Center
Tue 04:50:26 PM 38.5731 -90.5650 236° Southwest 118 136 5,700 387 Climbing Kansas City Center
Tue 04:51:30 PM 38.5556 -90.5983 236° Southwest 118 136 6,100 194 Climbing Kansas City Center
Tue 04:52:30 PM 38.5361 -90.6331 234° Southwest 118 136 6,100  Level Kansas City Center
Tue 04:53:34 PM 38.5186 -90.6672 237° Southwest 118 136 6,100  Level Kansas City Center
Tue 04:54:34 PM 38.5017 -90.7044 240° Southwest 118 136 6,100  Level Kansas City Center
Tue 04:55:38 PM 38.4833 -90.7392 236° Southwest 118 136 6,100  Level Kansas City Center
Tue 04:56:39 PM 38.4622 -90.7800 237° Southwest 117 135 6,100  Level Kansas City Center
Tue 04:57:39 PM 38.4453 -90.8133 237° Southwest 117 135 6,100  Level Kansas City Center
Tue 04:58:43 PM 38.4264 -90.8478 235° Southwest 117 135 6,100 48 Level Kansas City Center
Tue 04:59:44 PM 38.4103 -90.8786 236° Southwest 110 127 6,200 48 Climbing Kansas City Center
Tue 05:00:47 PM 38.3928 -90.9122 236° Southwest 110 127 6,200  Level Kansas City Center
Tue 05:01:51 PM 38.3744 -90.9475 236° Southwest 115 132 6,200 -48 Level Kansas City Center
Tue 05:02:51 PM 38.3522 -90.9892 236° Southwest 118 136 6,100 -50 Descending Kansas City Center
Tue 05:03:52 PM 38.3342 -91.0244 237° Southwest 118 136 6,100  Level Kansas City Center
Tue 05:04:56 PM 38.3158 -91.0603 237° Southwest 119 137 6,100  Level Kansas City Center
Tue 05:05:57 PM 38.2972 -91.0953 236° Southwest 119 137 6,100  Level Kansas City Center
Tue 05:07:01 PM 38.2800 -91.1289 237° Southwest 119 137 6,100  Level Kansas City Center
Tue 05:08:01 PM 38.2617 -91.1639 236° Southwest 118 136 6,100  Level Kansas City Center
Tue 05:09:02 PM 38.2400 -91.2069 237° Southwest 119 137 6,100  Level Kansas City Center
Tue 05:10:06 PM 38.2214 -91.2417 236° Southwest 119 137 6,100  Level Kansas City Center
Tue 05:11:08 PM 38.2031 -91.2758 236° Southwest 119 137 6,100  Level Kansas City Center
Tue 05:12:08 PM 38.1839 -91.3111 235° Southwest 120 138 6,100  Level Kansas City Center
Tue 05:13:12 PM 38.1636 -91.3497 236° Southwest 120 138 6,100  Level Kansas City Center
Tue 05:14:13 PM 38.1447 -91.3844 235° Southwest 120 138 6,100 -48 Level Kansas City Center
Tue 05:15:17 PM 38.1281 -91.4189 238° Southwest 118 136 6,000 -48 Descending Kansas City Center
Tue 05:16:18 PM 38.1089 -91.4544 236° Southwest 119 137 6,000  Level Kansas City Center
Tue 05:17:19 PM 38.0850 -91.4975 235° Southwest 119 137 6,000  Level Kansas City Center
Tue 05:18:22 PM 38.0669 -91.5339 238° Southwest 120 138 6,000  Level Kansas City Center
Tue 05:19:23 PM 38.0469 -91.5733 237° Southwest 128 147 6,000  Level Kansas City Center
Tue 05:20:27 PM 38.0267 -91.6078 233° Southwest 128 147 6,000  Level Kansas City Center
Tue 05:21:27 PM 38.0092 -91.6417 237° Southwest 118 136 6,000  Level Kansas City Center
Tue 05:22:31 PM 37.9911 -91.6764 237° Southwest 118 136 6,000  Level Kansas City Center
Tue 05:23:33 PM 37.9733 -91.7094 236° Southwest 117 135 6,000  Level Kansas City Center
Tue 05:24:34 PM 37.9494 -91.7539 236° Southwest 119 137 6,000  Level Kansas City Center
Tue 05:25:37 PM 37.9306 -91.7889 236° Southwest 119 137 6,000 48 Level Kansas City Center
Tue 05:26:38 PM 37.9111 -91.8267 237° Southwest 122 140 6,100 48 Climbing Kansas City Center
Tue 05:27:41 PM 37.8919 -91.8611 235° Southwest 122 140 6,100 -98 Level Kansas City Center
Tue 05:28:41 PM 37.8764 -91.9014 244° Southwest 120 138 5,900 -200 Descending Kansas City Center

Login

Don't have an account? Register now (free) for customized features, flight alerts, and more!